Time;durP1;ratioP1;P1;durP2;ratioP2;P2;SDS_P1;SDS_P2;PMS_P1;PMS_P2;Temp;Humidity;BMP_temperature;BMP_pressure;BME280_temperature;BME280_humidity;BME280_pressure;Samples;Min_cycle;Max_cycle;Signal;HPM_P1;HPM_P2
2022/08/25 00:01:37;;;;;;;0.88;0.65;;;28.10;62.30;;;;;;5056843;28;20029;-78
2022/08/25 00:04:05;;;;;;;3.13;0.65;;;28.20;62.40;;;;;;5056387;28;20049;-78
2022/08/25 00:06:31;;;;;;;2.50;1.10;;;28.10;62.40;;;;;;5056579;28;20017;-78
2022/08/25 00:08:58;;;;;;;3.97;1.13;;;28.00;61.70;;;;;;5056472;28;20142;-78
2022/08/25 00:11:27;;;;;;;3.40;1.00;;;28.00;61.60;;;;;;5056387;28;20029;-78
2022/08/25 00:13:57;;;;;;;2.13;0.82;;;27.90;61.90;;;;;;5056037;28;20032;-78
2022/08/25 00:16:23;;;;;;;3.00;0.98;;;27.80;62.30;;;;;;5056414;28;20369;-78
2022/08/25 00:18:54;;;;;;;1.83;0.98;;;27.80;62.20;;;;;;5056274;28;20035;-78
2022/08/25 00:21:20;;;;;;;2.40;0.77;;;27.80;61.90;;;;;;5056142;28;20495;-78
2022/08/25 00:23:46;;;;;;;2.20;1.10;;;27.70;61.90;;;;;;5055597;28;20410;-78
2022/08/25 00:26:12;;;;;;;4.78;1.10;;;27.70;62.10;;;;;;5056328;28;20106;-78
2022/08/25 00:28:38;;;;;;;4.68;1.25;;;27.60;62.00;;;;;;5055994;28;20029;-78
2022/08/25 00:31:05;;;;;;;4.35;0.77;;;27.60;61.90;;;;;;5055933;28;20032;-78
2022/08/25 00:33:32;;;;;;;1.20;0.65;;;27.60;62.10;;;;;;5055945;28;20047;-78
2022/08/25 00:35:59;;;;;;;3.17;1.23;;;27.50;62.50;;;;;;5055906;28;20457;-78
2022/08/25 00:38:25;;;;;;;2.10;1.10;;;27.50;62.20;;;;;;5056152;28;20107;-78
2022/08/25 00:41:04;;;;;;;4.57;1.30;;;27.50;62.10;;;;;;5055987;28;20055;-78
2022/08/25 00:43:40;;;;;;;2.50;0.90;;;27.50;61.70;;;;;;5056027;28;20064;-78
2022/08/25 00:46:07;;;;;;;3.00;1.15;;;27.50;61.70;;;;;;5055722;28;20064;-78
2022/08/25 00:48:34;;;;;;;3.28;1.02;;;27.40;61.70;;;;;;5055684;28;20078;-78
2022/08/25 00:51:03;;;;;;;1.35;0.88;;;27.40;61.60;;;;;;5055616;28;20021;-78
2022/08/25 00:53:30;;;;;;;3.35;0.90;;;27.40;62.00;;;;;;5055749;28;20033;-78
2022/08/25 00:55:57;;;;;;;2.63;0.82;;;27.30;62.40;;;;;;5055685;28;20040;-78
2022/08/25 00:58:26;;;;;;;5.68;1.73;;;27.30;62.00;;;;;;5055493;28;20029;-78
2022/08/25 01:00:55;;;;;;;5.05;1.13;;;27.20;61.70;;;;;;5055551;28;20119;-78
2022/08/25 01:03:23;;;;;;;4.70;1.55;;;27.20;61.80;;;;;;5055259;28;20373;-78
2022/08/25 01:05:49;;;;;;;5.07;1.10;;;27.10;61.70;;;;;;5055473;28;20017;-78
2022/08/25 01:08:20;;;;;;;3.22;1.40;;;27.10;62.10;;;;;;5055516;28;20048;-78
2022/08/25 01:10:46;;;;;;;2.10;0.80;;;27.10;62.20;;;;;;5055172;28;20432;-78
2022/08/25 01:13:20;;;;;;;5.25;1.40;;;27.10;62.30;;;;;;5055519;28;20415;-78
2022/08/25 01:15:47;;;;;;;2.03;0.95;;;27.10;62.10;;;;;;5055267;28;20413;-78
2022/08/25 01:18:14;;;;;;;5.40;2.28;;;27.00;62.40;;;;;;5055036;28;20025;-78
2022/08/25 01:20:40;;;;;;;1.70;0.70;;;27.00;62.30;;;;;;5054943;28;20025;-78
2022/08/25 01:23:06;;;;;;;2.65;1.02;;;27.00;62.60;;;;;;5055191;28;20050;-78
2022/08/25 01:25:50;;;;;;;2.35;0.90;;;27.00;62.70;;;;;;5054669;28;20045;-78
2022/08/25 01:28:16;;;;;;;2.90;1.02;;;27.00;62.40;;;;;;5055119;28;20029;-78
2022/08/25 01:30:42;;;;;;;3.35;1.50;;;27.00;62.30;;;;;;5054911;28;20088;-78
2022/08/25 01:33:10;;;;;;;2.13;1.00;;;27.00;62.30;;;;;;5054659;28;20025;-78
2022/08/25 01:35:36;;;;;;;4.95;1.20;;;26.90;61.80;;;;;;5054777;28;20029;-78
2022/08/25 01:38:04;;;;;;;2.63;1.08;;;26.90;61.70;;;;;;5054906;28;20100;-78
2022/08/25 01:40:30;;;;;;;2.28;1.13;;;26.80;62.10;;;;;;5054664;28;20502;-78
2022/08/25 01:43:08;;;;;;;4.07;1.30;;;26.80;62.00;;;;;;5054589;28;20108;-78
2022/08/25 01:45:34;;;;;;;4.80;1.10;;;26.70;61.80;;;;;;5054790;28;20028;-78
2022/08/25 01:48:00;;;;;;;2.35;1.27;;;26.70;61.60;;;;;;5054786;28;20021;-78
2022/08/25 01:50:26;;;;;;;1.75;0.98;;;26.70;61.80;;;;;;5054626;28;20025;-78
2022/08/25 01:53:06;;;;;;;1.75;1.10;;;26.70;61.70;;;;;;5054546;28;20051;-78
2022/08/25 01:55:50;;;;;;;3.20;1.80;;;26.70;61.30;;;;;;5054293;28;20100;-78
2022/08/25 01:58:20;;;;;;;1.75;1.00;;;26.70;61.00;;;;;;5054258;28;20021;-78
2022/08/25 02:00:48;;;;;;;3.60;1.40;;;26.70;61.40;;;;;;5054498;28;20033;-78
2022/08/25 02:03:14;;;;;;;4.43;1.60;;;26.70;61.60;;;;;;5054015;28;20039;-78
2022/08/25 02:05:39;;;;;;;3.88;1.52;;;26.70;61.30;;;;;;5054035;28;20029;-78
2022/08/25 02:08:05;;;;;;;4.97;1.60;;;26.70;61.00;;;;;;5054356;28;20029;-78
2022/08/25 02:10:32;;;;;;;3.33;1.17;;;26.70;60.90;;;;;;5054077;28;20476;-78
2022/08/25 02:12:58;;;;;;;4.78;1.70;;;26.60;60.70;;;;;;5054177;28;20083;-78
2022/08/25 02:15:24;;;;;;;2.72;1.27;;;26.60;60.40;;;;;;5053783;28;20427;-78
2022/08/25 02:17:50;;;;;;;5.22;1.40;;;26.60;60.40;;;;;;5054138;28;20052;-78
2022/08/25 02:20:16;;;;;;;3.03;1.60;;;26.60;60.40;;;;;;5053975;28;20025;-78
2022/08/25 02:22:42;;;;;;;2.63;0.93;;;26.50;60.30;;;;;;5053734;28;20033;-78
2022/08/25 02:25:09;;;;;;;7.20;1.55;;;26.50;60.70;;;;;;5053584;28;20052;-78
2022/08/25 02:27:34;;;;;;;5.22;1.90;;;26.50;60.50;;;;;;5053799;28;20410;-78
2022/08/25 02:30:00;;;;;;;5.57;1.30;;;26.40;60.10;;;;;;5053921;28;20036;-78
2022/08/25 02:32:26;;;;;;;4.13;1.40;;;26.40;60.20;;;;;;5053904;28;20025;-78
2022/08/25 02:34:52;;;;;;;3.45;1.27;;;26.40;60.00;;;;;;5053975;28;20025;-78
2022/08/25 02:37:18;;;;;;;3.40;1.60;;;26.40;59.60;;;;;;5053966;28;20423;-78
2022/08/25 02:39:44;;;;;;;3.00;1.20;;;26.40;60.00;;;;;;5053347;28;20025;-78
2022/08/25 02:42:10;;;;;;;5.25;1.42;;;26.40;60.10;;;;;;5053400;28;20071;-78
2022/08/25 02:44:35;;;;;;;1.35;0.80;;;26.40;59.40;;;;;;5053747;28;20036;-78
2022/08/25 02:47:01;;;;;;;3.33;1.25;;;26.40;59.80;;;;;;5053456;28;20021;-78
2022/08/25 02:49:27;;;;;;;3.47;1.33;;;26.50;59.40;;;;;;5053319;28;20480;-78
2022/08/25 02:51:53;;;;;;;4.30;1.40;;;26.40;58.70;;;;;;5053691;28;20079;-78
2022/08/25 02:54:19;;;;;;;4.65;1.02;;;26.30;58.60;;;;;;5053028;28;20029;-77
2022/08/25 02:56:45;;;;;;;2.55;0.77;;;26.40;59.60;;;;;;5053563;28;20033;-78
2022/08/25 02:59:10;;;;;;;3.15;1.33;;;26.30;59.60;;;;;;5053239;28;20104;-78
2022/08/25 03:01:36;;;;;;;2.75;0.68;;;26.30;59.60;;;;;;5053362;28;20036;-78
2022/08/25 03:04:02;;;;;;;3.15;1.17;;;26.30;60.40;;;;;;5053284;28;20033;-78
2022/08/25 03:06:29;;;;;;;3.03;1.27;;;26.30;59.50;;;;;;5053038;28;20025;-78
2022/08/25 03:08:54;;;;;;;2.17;1.17;;;26.40;59.30;;;;;;5053189;28;20385;-78
2022/08/25 03:11:20;;;;;;;4.35;1.20;;;26.40;59.20;;;;;;5053077;28;20036;-78
2022/08/25 03:13:48;;;;;;;3.08;0.80;;;26.40;59.10;;;;;;5053376;28;20028;-78
2022/08/25 03:16:14;;;;;;;4.32;1.02;;;26.40;59.30;;;;;;5053284;28;20024;-78
2022/08/25 03:18:41;;;;;;;7.07;1.83;;;26.30;59.90;;;;;;5053234;28;20033;-78
2022/08/25 03:21:07;;;;;;;5.25;1.33;;;26.30;59.40;;;;;;5053325;28;20029;-78
2022/08/25 03:23:32;;;;;;;3.10;1.33;;;26.30;59.20;;;;;;5052860;28;20116;-78
2022/08/25 03:28:42;;;;;;;6.30;1.70;;;26.30;59.40;;;;;;5053333;28;20495;-78
2022/08/25 03:31:09;;;;;;;4.03;1.27;;;26.30;59.40;;;;;;5053213;28;20036;-78
2022/08/25 03:33:35;;;;;;;6.38;1.30;;;26.30;59.30;;;;;;5054716;28;20048;-78
2022/08/25 03:36:00;;;;;;;2.95;1.30;;;26.20;59.70;;;;;;5056885;28;20472;-78
2022/08/25 03:38:26;;;;;;;4.90;1.08;;;26.10;59.90;;;;;;5056706;28;20024;-78
2022/08/25 03:40:52;;;;;;;2.03;1.33;;;26.00;60.00;;;;;;5056873;28;20033;-78
2022/08/25 03:43:19;;;;;;;6.10;1.85;;;26.00;60.10;;;;;;5056963;28;20140;-78
2022/08/25 03:45:46;;;;;;;6.45;1.75;;;26.00;59.60;;;;;;5056923;28;20104;-78
2022/08/25 03:48:13;;;;;;;4.13;1.38;;;26.00;59.80;;;;;;5057129;28;20029;-78
2022/08/25 03:50:45;;;;;;;2.67;1.40;;;26.00;59.70;;;;;;5056743;28;20056;-78
2022/08/25 03:53:10;;;;;;;2.97;1.35;;;25.90;59.90;;;;;;5056827;28;20045;-78
2022/08/25 03:55:37;;;;;;;3.83;1.80;;;25.90;60.00;;;;;;5056843;28;20448;-78
2022/08/25 03:58:02;;;;;;;6.90;1.98;;;25.90;59.80;;;;;;5056711;28;20017;-77
2022/08/25 04:00:28;;;;;;;3.97;1.33;;;25.90;59.80;;;;;;5056533;28;20538;-77
2022/08/25 04:02:53;;;;;;;3.65;1.45;;;25.80;60.40;;;;;;5056415;28;20033;-78
2022/08/25 04:05:19;;;;;;;4.82;2.15;;;25.80;60.60;;;;;;5056352;28;20040;-78
2022/08/25 04:07:45;;;;;;;4.55;2.03;;;25.80;60.30;;;;;;5056409;28;20099;-77
2022/08/25 04:10:11;;;;;;;4.57;1.48;;;25.70;60.40;;;;;;5056534;28;20464;-78
2022/08/25 04:12:37;;;;;;;4.50;1.83;;;25.70;60.50;;;;;;5056258;28;20028;-78
2022/08/25 04:15:04;;;;;;;3.63;1.50;;;25.70;60.70;;;;;;5056226;28;20025;-78
2022/08/25 04:17:30;;;;;;;3.90;1.83;;;25.60;61.10;;;;;;5056205;28;20029;-78
2022/08/25 04:19:56;;;;;;;6.25;1.88;;;25.60;61.00;;;;;;5056470;28;20514;-78
2022/08/25 04:22:22;;;;;;;5.22;1.90;;;25.60;61.20;;;;;;5055998;28;20028;-78
2022/08/25 04:24:47;;;;;;;3.72;1.85;;;25.60;61.60;;;;;;5055917;28;20088;-78
2022/08/25 04:27:13;;;;;;;4.03;1.50;;;25.60;61.70;;;;;;5055903;28;20071;-78
2022/08/25 04:29:39;;;;;;;2.38;1.58;;;25.60;61.60;;;;;;5056126;28;20053;-78
2022/08/25 04:32:05;;;;;;;2.45;1.83;;;25.60;61.70;;;;;;5055996;28;20023;-78
2022/08/25 04:34:30;;;;;;;5.18;1.50;;;25.50;61.50;;;;;;5055873;28;20099;-78
2022/08/25 04:36:56;;;;;;;4.68;1.50;;;25.40;62.00;;;;;;5056191;28;20031;-78
2022/08/25 04:39:22;;;;;;;3.08;1.65;;;25.40;62.20;;;;;;5055940;28;20025;-78
2022/08/25 04:41:49;;;;;;;3.78;1.92;;;25.40;62.20;;;;;;5055784;28;20552;-78
2022/08/25 04:44:15;;;;;;;5.32;1.48;;;25.40;61.80;;;;;;5055448;28;20041;-78
2022/08/25 04:46:41;;;;;;;4.90;1.77;;;25.30;62.40;;;;;;5055986;28;20021;-78
2022/08/25 04:49:07;;;;;;;3.35;2.05;;;25.30;62.30;;;;;;5055755;28;20036;-78
2022/08/25 04:51:39;;;;;;;2.88;1.23;;;25.30;61.90;;;;;;5055576;28;20022;-78
2022/08/25 04:54:11;;;;;;;5.32;2.08;;;25.40;62.30;;;;;;5055647;28;20017;-78
2022/08/25 04:56:39;;;;;;;3.80;1.75;;;25.40;62.10;;;;;;5055696;28;20040;-78
2022/08/25 04:59:11;;;;;;;3.13;1.80;;;25.40;61.90;;;;;;5055740;28;20040;-78
2022/08/25 05:01:39;;;;;;;7.18;2.08;;;25.40;62.00;;;;;;5055460;28;20492;-78
2022/08/25 05:04:07;;;;;;;6.25;2.00;;;25.30;61.90;;;;;;5055205;28;20044;-78
2022/08/25 05:06:34;;;;;;;1.75;1.17;;;25.30;61.90;;;;;;5055274;28;20457;-78
2022/08/25 05:09:00;;;;;;;4.03;2.10;;;25.20;62.20;;;;;;5055296;28;20476;-78
2022/08/25 05:11:26;;;;;;;6.03;2.35;;;25.30;62.60;;;;;;5054840;28;20415;-78
2022/08/25 05:13:54;;;;;;;1.95;1.20;;;25.20;61.90;;;;;;5055022;28;20025;-78
2022/08/25 05:16:22;;;;;;;4.72;2.30;;;25.20;62.70;;;;;;5055122;28;20116;-78
2022/08/25 05:18:48;;;;;;;7.75;2.05;;;25.20;62.50;;;;;;5055174;28;20037;-78
2022/08/25 05:21:17;;;;;;;3.75;2.15;;;25.10;62.50;;;;;;5054965;28;20036;-78
2022/08/25 05:23:43;;;;;;;2.88;1.50;;;25.20;62.30;;;;;;5054732;28;20515;-78
2022/08/25 05:26:16;;;;;;;3.85;1.88;;;25.10;62.60;;;;;;5054794;28;20056;-78
2022/08/25 05:28:42;;;;;;;2.40;1.50;;;25.00;63.00;;;;;;5054838;28;20069;-78
2022/08/25 05:31:11;;;;;;;3.63;1.85;;;25.00;63.20;;;;;;5054996;28;20032;-78
2022/08/25 05:33:38;;;;;;;3.03;1.63;;;24.90;63.20;;;;;;5054403;28;20047;-78
2022/08/25 05:36:04;;;;;;;5.45;1.60;;;24.90;63.40;;;;;;5054885;28;20029;-78
2022/08/25 05:38:30;;;;;;;6.57;1.88;;;24.90;63.20;;;;;;5054682;28;20064;-78
2022/08/25 05:41:02;;;;;;;3.97;1.30;;;25.00;63.10;;;;;;5054564;28;20056;-78
2022/08/25 05:43:28;;;;;;;5.90;1.60;;;25.00;63.20;;;;;;5054784;28;20040;-78
2022/08/25 05:45:56;;;;;;;5.05;1.73;;;25.10;63.10;;;;;;5054694;28;20027;-78
2022/08/25 05:48:22;;;;;;;6.38;1.75;;;25.10;63.40;;;;;;5054584;28;20029;-78
2022/08/25 05:50:53;;;;;;;2.00;1.20;;;25.10;63.30;;;;;;5054694;28;20393;-78
2022/08/25 05:53:19;;;;;;;6.35;2.35;;;25.20;63.50;;;;;;5054325;28;20029;-78
2022/08/25 05:55:45;;;;;;;3.72;1.50;;;25.20;64.20;;;;;;5053513;28;20049;-78
2022/08/25 05:58:11;;;;;;;4.15;1.92;;;25.30;63.10;;;;;;5054168;28;20504;-78
2022/08/25 06:00:38;;;;;;;3.58;1.25;;;25.40;62.10;;;;;;5053969;28;20029;-78
2022/08/25 06:03:03;;;;;;;3.95;1.98;;;25.30;62.40;;;;;;5054224;28;20039;-78
2022/08/25 06:05:31;;;;;;;7.05;2.20;;;25.40;62.20;;;;;;5054022;28;20017;-78
2022/08/25 06:07:57;;;;;;;6.63;2.22;;;25.50;61.70;;;;;;5054159;28;20035;-78
2022/08/25 06:10:24;;;;;;;4.50;2.22;;;25.40;61.50;;;;;;5054039;28;20045;-78
2022/08/25 06:12:50;;;;;;;3.03;1.58;;;25.40;61.90;;;;;;5054190;28;20044;-78
2022/08/25 06:15:17;;;;;;;5.50;2.00;;;25.30;62.10;;;;;;5054186;28;20515;-78
2022/08/25 06:17:44;;;;;;;7.47;2.47;;;25.40;61.90;;;;;;5054179;28;20021;-78
2022/08/25 06:20:15;;;;;;;7.40;2.20;;;25.40;61.50;;;;;;5053658;28;20036;-78
2022/08/25 06:22:41;;;;;;;6.43;2.40;;;25.50;61.20;;;;;;5053659;28;20025;-78
2022/08/25 06:25:11;;;;;;;3.17;1.63;;;25.50;61.10;;;;;;5053728;28;20091;-78
2022/08/25 06:27:37;;;;;;;5.07;2.28;;;25.50;61.30;;;;;;5053661;28;20544;-78
2022/08/25 06:30:05;;;;;;;3.92;2.20;;;25.60;61.40;;;;;;5053652;28;20040;-78
2022/08/25 06:32:32;;;;;;;6.32;1.70;;;25.50;60.90;;;;;;5053282;28;20563;-78
2022/08/25 06:34:57;;;;;;;4.03;1.95;;;25.60;61.30;;;;;;5053464;28;20040;-78
2022/08/25 06:37:24;;;;;;;2.75;1.40;;;25.60;61.40;;;;;;5053668;28;20021;-78
2022/08/25 06:39:53;;;;;;;5.28;2.00;;;25.70;61.30;;;;;;5053305;28;20162;-78
2022/08/25 06:42:18;;;;;;;7.13;2.28;;;25.70;60.80;;;;;;5053592;28;20376;-78
2022/08/25 06:44:44;;;;;;;9.05;2.13;;;25.70;60.80;;;;;;5053687;28;20021;-78
2022/08/25 06:47:10;;;;;;;6.25;1.88;;;25.70;61.00;;;;;;5053750;28;20033;-78
2022/08/25 06:49:35;;;;;;;6.05;1.70;;;25.70;60.90;;;;;;5053122;28;20483;-78
2022/08/25 06:52:01;;;;;;;5.82;1.92;;;25.80;61.20;;;;;;5053466;28;20021;-78
2022/08/25 06:54:27;;;;;;;6.13;2.03;;;25.80;61.10;;;;;;5053222;28;20017;-78
2022/08/25 06:56:53;;;;;;;4.32;2.20;;;25.90;60.40;;;;;;5053497;28;20029;-78
2022/08/25 06:59:18;;;;;;;4.18;1.92;;;26.00;60.20;;;;;;5053437;28;20346;-78
2022/08/25 07:01:44;;;;;;;7.20;2.17;;;26.10;60.40;;;;;;5053066;28;20078;-78
2022/08/25 07:04:10;;;;;;;3.00;1.63;;;26.10;60.20;;;;;;5053069;28;20116;-78
2022/08/25 07:06:36;;;;;;;8.45;2.05;;;26.20;60.90;;;;;;5053191;28;20106;-78
2022/08/25 07:09:04;;;;;;;3.47;1.95;;;26.30;60.20;;;;;;5053196;28;20025;-78
2022/08/25 07:11:33;;;;;;;3.60;2.10;;;26.40;60.10;;;;;;5053308;28;20021;-78
2022/08/25 07:14:00;;;;;;;4.68;2.35;;;26.40;60.10;;;;;;5052947;28;20484;-78
2022/08/25 07:16:26;;;;;;;7.20;2.58;;;26.50;59.70;;;;;;5053151;28;20029;-78
2022/08/25 07:18:55;;;;;;;5.82;2.30;;;26.60;59.90;;;;;;5052930;28;20069;-78
2022/08/25 07:21:21;;;;;;;7.03;2.10;;;26.60;59.70;;;;;;5052958;28;20100;-78
2022/08/25 07:23:47;;;;;;;5.13;2.50;;;26.70;59.90;;;;;;5052647;28;20465;-78
2022/08/25 07:26:16;;;;;;;5.50;1.80;;;26.80;59.70;;;;;;5053025;28;20025;-78
2022/08/25 07:28:42;;;;;;;7.22;2.10;;;26.90;59.30;;;;;;5052969;28;20032;-78
2022/08/25 07:31:08;;;;;;;7.88;2.20;;;27.00;58.70;;;;;;5053020;28;20021;-78
2022/08/25 07:33:34;;;;;;;5.63;1.90;;;27.00;59.10;;;;;;5052788;28;20480;-78
2022/08/25 07:36:00;;;;;;;5.45;2.47;;;27.10;59.20;;;;;;5053083;28;20017;-78
2022/08/25 07:38:25;;;;;;;5.70;2.40;;;27.20;59.10;;;;;;5053166;28;20491;-78
2022/08/25 07:40:53;;;;;;;7.35;2.10;;;27.20;59.20;;;;;;5052865;28;20117;-78
2022/08/25 07:43:21;;;;;;;4.80;2.28;;;27.20;58.80;;;;;;5052899;28;20114;-78
2022/08/25 07:45:47;;;;;;;3.78;1.40;;;27.20;59.70;;;;;;5052563;28;20113;-78
2022/08/25 07:48:13;;;;;;;4.93;2.30;;;27.30;59.40;;;;;;5052735;28;20503;-78
2022/08/25 07:50:44;;;;;;;8.05;2.13;;;27.40;59.00;;;;;;5052824;28;20063;-78
2022/08/25 07:53:11;;;;;;;7.07;1.90;;;27.50;59.10;;;;;;5052943;28;20028;-78
2022/08/25 07:55:37;;;;;;;5.90;1.70;;;27.60;58.70;;;;;;5052549;28;20025;-78
2022/08/25 07:58:05;;;;;;;6.07;1.95;;;27.70;59.00;;;;;;5052854;28;20025;-79
2022/08/25 08:00:32;;;;;;;4.72;2.10;;;27.70;58.20;;;;;;5052662;28;20017;-78
2022/08/25 08:03:00;;;;;;;6.70;1.70;;;27.80;58.00;;;;;;5052592;28;20029;-78
2022/08/25 08:05:26;;;;;;;4.80;1.98;;;27.80;58.20;;;;;;5052402;28;20543;-78
2022/08/25 08:07:53;;;;;;;9.23;2.25;;;27.80;58.20;;;;;;5052890;28;20067;-78
2022/08/25 08:10:19;;;;;;;4.00;2.28;;;27.90;59.00;;;;;;5052627;28;20025;-79
2022/08/25 08:12:45;;;;;;;6.38;2.25;;;28.00;58.60;;;;;;5052684;28;20036;-79
2022/08/25 08:15:11;;;;;;;3.92;1.80;;;28.10;58.70;;;;;;5052330;28;20388;-79
2022/08/25 08:17:38;;;;;;;6.03;2.00;;;28.10;58.00;;;;;;5052472;28;20021;-78
2022/08/25 08:20:07;;;;;;;4.57;2.13;;;28.10;57.70;;;;;;5054937;28;20029;-79
2022/08/25 08:22:36;;;;;;;8.23;2.28;;;28.20;57.50;;;;;;5054533;28;20024;-79
2022/08/25 08:25:03;;;;;;;9.88;2.28;;;28.20;57.60;;;;;;5056025;28;20059;-78
2022/08/25 08:27:28;;;;;;;7.60;2.28;;;28.20;57.40;;;;;;5056120;28;20028;-78
2022/08/25 08:29:54;;;;;;;4.40;1.98;;;28.30;57.20;;;;;;5056257;28;20033;-79
2022/08/25 08:32:20;;;;;;;7.75;2.35;;;28.30;57.30;;;;;;5055840;28;20532;-79
2022/08/25 08:34:46;;;;;;;7.07;1.80;;;28.30;57.80;;;;;;5055992;28;20036;-79
2022/08/25 08:37:12;;;;;;;8.57;1.92;;;28.40;57.50;;;;;;5055723;28;20021;-78
2022/08/25 08:39:38;;;;;;;7.55;2.15;;;28.50;56.90;;;;;;5055811;28;20032;-77
2022/08/25 08:42:16;;;;;;;5.07;2.08;;;28.60;56.00;;;;;;5055631;28;20029;-79
2022/08/25 08:44:45;;;;;;;6.97;2.53;;;28.70;56.10;;;;;;5055910;28;20045;-77
2022/08/25 08:47:31;;;;;;;8.30;2.70;;;28.80;57.20;;;;;;5055613;28;20025;-79
2022/08/25 08:50:16;;;;;;;8.02;2.67;;;28.80;56.90;;;;;;5055527;28;20571;-77
2022/08/25 08:53:08;;;;;;;7.43;2.10;;;28.90;56.60;;;;;;5055416;28;20423;-78
2022/08/25 08:55:52;;;;;;;;;;;29.00;56.30;;;;;;5056203;28;20021;-78
2022/08/25 08:58:21;;;;;;;9.18;2.25;;;29.10;56.30;;;;;;5055306;28;19916;-78
2022/08/25 09:00:51;;;;;;;6.05;1.75;;;29.30;57.00;;;;;;5055430;28;20025;-78
2022/08/25 09:03:29;;;;;;;12.43;2.22;;;29.40;56.80;;;;;;5055399;28;20052;-78
2022/08/25 09:05:59;;;;;;;4.07;2.03;;;29.60;56.10;;;;;;5055529;28;20044;-78
2022/08/25 09:08:25;;;;;;;5.13;1.52;;;29.60;55.70;;;;;;5055392;28;20104;-78
2022/08/25 09:10:56;;;;;;;7.10;2.10;;;29.70;55.40;;;;;;5055104;28;20167;-78
2022/08/25 09:13:27;;;;;;;6.07;1.70;;;29.80;55.40;;;;;;5055001;28;20033;-78
2022/08/25 09:19:17;;;;;;;7.38;1.75;;;30.00;54.60;;;;;;5055139;28;20064;-79
2022/08/25 09:22:00;;;;;;;6.47;1.90;;;30.00;54.00;;;;;;5055114;28;20043;-78
2022/08/25 09:24:55;;;;;;;5.40;1.83;;;30.10;53.20;;;;;;5054601;28;20052;-78
2022/08/25 09:27:41;;;;;;;5.95;1.85;;;30.20;53.10;;;;;;5055250;28;20021;-78
2022/08/25 09:30:18;;;;;;;5.10;1.60;;;30.30;52.90;;;;;;5054455;28;20033;-78
2022/08/25 09:32:52;;;;;;;5.30;1.83;;;30.40;53.00;;;;;;5054498;28;20032;-78
2022/08/25 09:35:27;;;;;;;3.45;1.50;;;30.60;53.90;;;;;;5054910;28;20047;-78
2022/08/25 09:38:10;;;;;;;6.43;1.77;;;30.60;52.60;;;;;;5054615;28;20028;-78
2022/08/25 09:40:39;;;;;;;2.67;1.58;;;30.60;52.20;;;;;;5054561;28;20477;-78
2022/08/25 09:43:33;;;;;;;6.45;1.77;;;30.70;53.40;;;;;;5054650;28;20447;-78
2022/08/25 09:46:26;;;;;;;5.45;1.73;;;30.80;52.70;;;;;;5054239;28;20032;-79
2022/08/25 09:49:09;;;;;;;6.50;1.63;;;30.90;52.70;;;;;;5054203;28;20106;-79
2022/08/25 09:51:38;;;;;;;7.28;1.88;;;31.00;52.70;;;;;;5054776;28;20025;-79
2022/08/25 09:54:16;;;;;;;6.40;1.60;;;31.10;51.60;;;;;;5054595;28;20112;-79
2022/08/25 09:56:55;;;;;;;6.05;1.58;;;31.20;51.50;;;;;;5054411;28;20392;-79
2022/08/25 09:59:27;;;;;;;7.22;1.73;;;31.20;50.80;;;;;;5054165;28;20029;-79
2022/08/25 10:01:54;;;;;;;;;;;31.30;50.40;;;;;;5054417;28;20032;-79
2022/08/25 10:04:28;;;;;;;3.38;1.38;;;31.40;50.10;;;;;;5054102;28;19913;-79
2022/08/25 10:06:55;;;;;;;3.88;1.88;;;31.50;50.00;;;;;;5054433;28;20138;-79
2022/08/25 10:09:36;;;;;;;2.35;1.30;;;31.50;50.10;;;;;;5054241;28;20036;-79
2022/08/25 10:12:14;;;;;;;;;;;31.70;50.40;;;;;;5054809;28;20028;-79
2022/08/25 10:14:39;;;;;;;3.08;1.50;;;31.80;49.40;;;;;;5054034;28;19905;-79
2022/08/25 10:17:11;;;;;;;6.50;1.95;;;31.90;49.50;;;;;;5053959;28;20028;-79
2022/08/25 10:19:37;;;;;;;4.10;1.58;;;32.10;49.30;;;;;;5053959;28;20041;-79
2022/08/25 10:22:06;;;;;;;6.38;1.42;;;32.20;49.20;;;;;;5053938;28;20536;-79
2022/08/25 10:24:32;;;;;;;5.32;1.45;;;32.30;48.10;;;;;;5053716;28;20138;-79
2022/08/25 10:27:06;;;;;;;4.50;1.40;;;32.30;48.20;;;;;;5053847;28;20373;-79
2022/08/25 10:29:37;;;;;;;5.45;1.38;;;32.40;47.90;;;;;;5054105;28;20108;-79
2022/08/25 10:32:23;;;;;;;5.05;1.40;;;32.50;48.50;;;;;;5053475;28;20469;-79
2022/08/25 10:34:54;;;;;;;7.05;1.80;;;32.60;48.30;;;;;;5053693;28;20060;-79
2022/08/25 10:37:31;;;;;;;14.38;1.70;;;32.70;48.80;;;;;;5053525;28;20031;-79
2022/08/25 10:40:06;;;;;;;3.10;1.27;;;32.80;47.70;;;;;;5053657;28;20040;-79
2022/08/25 10:42:39;;;;;;;3.30;1.33;;;32.90;47.80;;;;;;5053357;28;20021;-79
2022/08/25 10:45:44;;;;;;;5.05;1.80;;;33.00;47.60;;;;;;5053786;28;20029;-80
2022/08/25 10:48:33;;;;;;;2.25;1.33;;;33.00;46.40;;;;;;5053846;28;20032;-79
2022/08/25 10:51:17;;;;;;;6.10;1.55;;;33.00;45.80;;;;;;5053187;28;20028;-80
2022/08/25 10:54:02;;;;;;;6.97;1.42;;;33.20;45.70;;;;;;5053596;28;20082;-80
2022/08/25 10:56:40;;;;;;;5.07;1.40;;;33.20;45.50;;;;;;5053159;28;20454;-80
2022/08/25 10:59:25;;;;;;;3.72;1.30;;;33.40;44.30;;;;;;5053211;28;20480;-80
2022/08/25 11:02:25;;;;;;;3.40;1.30;;;33.50;44.90;;;;;;5053057;28;20028;-80
2022/08/25 11:05:05;;;;;;;2.08;1.10;;;33.60;45.60;;;;;;5053227;28;20041;-80
2022/08/25 11:07:40;;;;;;;5.55;1.02;;;33.70;44.60;;;;;;5053100;28;20112;-80
2022/08/25 11:10:12;;;;;;;3.42;0.75;;;33.80;43.60;;;;;;5052962;28;20503;-80
2022/08/25 11:12:51;;;;;;;1.55;0.63;;;33.90;41.50;;;;;;5053345;28;20253;-80
2022/08/25 11:15:24;;;;;;;1.42;0.80;;;34.00;41.80;;;;;;5052946;28;20021;-80
2022/08/25 11:18:07;;;;;;;6.05;1.00;;;34.00;42.00;;;;;;5053357;28;20048;-80
2022/08/25 11:20:40;;;;;;;2.95;1.00;;;34.10;42.20;;;;;;5052395;28;20484;-80
2022/08/25 11:23:18;;;;;;;5.53;0.90;;;34.00;41.90;;;;;;5053352;28;20063;-80
2022/08/25 11:25:49;;;;;;;3.13;1.10;;;34.00;42.40;;;;;;5052897;28;20088;-80
2022/08/25 11:28:35;;;;;;;2.53;1.00;;;34.10;42.10;;;;;;5052775;28;20647;-80
2022/08/25 11:31:03;;;;;;;9.45;1.20;;;34.20;42.60;;;;;;5053222;28;20033;-80
2022/08/25 11:33:29;;;;;;;2.75;0.70;;;34.20;43.10;;;;;;5053127;28;20151;-80
2022/08/25 11:36:11;;;;;;;1.42;0.68;;;34.30;42.00;;;;;;5053133;28;20036;-80
2022/08/25 11:38:50;;;;;;;2.47;0.80;;;34.40;41.90;;;;;;5053153;28;20228;-80
2022/08/25 11:41:54;;;;;;;2.70;0.70;;;34.50;41.40;;;;;;5053192;28;20025;-80
2022/08/25 11:45:06;;;;;;;3.13;0.80;;;34.70;41.00;;;;;;5049187;28;20136;-80
2022/08/25 11:47:44;;;;;;;;;;;34.70;41.10;;;;;;5030975;28;20053;-80
2022/08/25 11:50:31;;;;;;;2.72;0.70;;;34.70;41.60;;;;;;5051675;28;20344;-80
2022/08/25 11:53:21;;;;;;;3.95;1.05;;;34.80;41.30;;;;;;5052652;28;20037;-80
2022/08/25 11:55:52;;;;;;;3.05;0.80;;;34.80;42.00;;;;;;5056442;28;20063;-80
2022/08/25 11:58:29;;;;;;;;;;;34.90;41.70;;;;;;5057126;28;20037;-80
2022/08/25 12:00:58;;;;;;;2.63;0.63;;;34.90;40.80;;;;;;5056504;28;19904;-80
2022/08/25 12:03:35;;;;;;;2.80;1.08;;;35.00;41.10;;;;;;5056531;28;20063;-80
2022/08/25 12:06:12;;;;;;;3.75;0.75;;;35.10;41.40;;;;;;5056306;28;20021;-80
2022/08/25 12:09:00;;;;;;;1.10;0.60;;;35.10;40.50;;;;;;5056344;28;20057;-80
2022/08/25 12:11:38;;;;;;;2.03;0.90;;;35.10;40.30;;;;;;5056335;28;20017;-81
2022/08/25 12:14:23;;;;;;;2.67;1.00;;;35.10;40.20;;;;;;5056379;28;20333;-80
2022/08/25 12:16:54;;;;;;;3.35;0.70;;;35.20;40.50;;;;;;5056245;28;20027;-80
2022/08/25 12:19:35;;;;;;;3.38;0.93;;;35.20;40.30;;;;;;5056079;28;20384;-80
2022/08/25 12:22:00;;;;;;;2.85;0.93;;;35.30;40.40;;;;;;5056318;28;20029;-80
2022/08/25 12:24:41;;;;;;;3.38;0.80;;;35.30;40.70;;;;;;5055858;28;20075;-80
2022/08/25 12:27:19;;;;;;;5.05;0.98;;;35.20;40.30;;;;;;5055767;28;20027;-81
2022/08/25 12:29:54;;;;;;;2.78;0.90;;;35.20;41.70;;;;;;5056227;28;20037;-81
2022/08/25 12:32:57;;;;;;;1.50;0.70;;;35.30;39.80;;;;;;5055798;28;20100;-80
2022/08/25 12:35:39;;;;;;;2.55;1.20;;;35.30;40.40;;;;;;5054949;28;20028;-81
2022/08/25 12:38:08;;;;;;;1.45;0.80;;;35.20;39.90;;;;;;5055920;28;20029;-80
2022/08/25 12:40:42;;;;;;;2.60;0.70;;;35.20;40.20;;;;;;5055475;28;20350;-80
2022/08/25 12:43:09;;;;;;;2.80;0.90;;;35.20;41.30;;;;;;5055469;28;20114;-80
2022/08/25 12:45:38;;;;;;;3.22;0.90;;;35.30;40.60;;;;;;5055511;28;20071;-80
2022/08/25 12:48:25;;;;;;;2.65;0.93;;;35.30;40.20;;;;;;5055426;28;20029;-80
2022/08/25 12:51:11;;;;;;;2.78;0.80;;;35.30;40.80;;;;;;5055495;28;20032;-80
2022/08/25 12:53:39;;;;;;;3.65;0.80;;;35.30;40.20;;;;;;5055554;28;20060;-80
2022/08/25 12:56:26;;;;;;;1.80;0.75;;;35.40;40.70;;;;;;5055453;28;20543;-81
2022/08/25 12:59:00;;;;;;;3.80;1.50;;;35.40;40.10;;;;;;5055500;28;20037;-80
2022/08/25 13:01:53;;;;;;;4.53;0.95;;;35.30;39.80;;;;;;5055644;28;20086;-80
2022/08/25 13:04:38;;;;;;;4.45;0.85;;;35.20;40.10;;;;;;5054939;28;20033;-80
2022/08/25 13:07:14;;;;;;;5.15;0.82;;;35.20;40.40;;;;;;5055682;28;20028;-81
2022/08/25 13:09:59;;;;;;;2.72;0.73;;;35.10;40.20;;;;;;5055511;28;20107;-80
2022/08/25 13:13:03;;;;;;;2.65;0.80;;;35.00;40.10;;;;;;5055227;28;20025;-80